Welcome to Northern Hawkes Bay. New Zealand.
PWS Header
      nz Flag



Hit Counter


W3C Valid W3C Valid logo


    Wairoa

Select any of the Stations below to visit their websites.










Historic Data from Weather Underground
Select the location of interest below. Wairoa is the default. Please have patience, this Data is slow to load in.
Northern Hawkes Bay Historical Data
Daily Summary for June 26, 2017 Units:  English    Metric   Both
« Previous Day
Next Day »
Daily Weekly Monthly Yearly Custom
  High: Low: Average:
Temperature: 54.9 °F 48.2 °F 50.7 °F
Dew Point: 50.7 °F 47.7 °F 49.1 °F
Humidity: 99% 81% 95%
Wind Speed: 11.4mph 0mph 3.7mph
Wind Gust: 22.1mph - -
Wind- - West
Pressure: 30 in 29.9 in -
Precipitation: 0.32 in    
Historical Graphs
 
 
Tabular Data for June 26, 2017
Time Temperature Dew Point Pressure Wind Wind Speed Wind Gust Humidity Rainfall Rate (Hourly) solar
00:08 49.5 °F 49.3 °F 29.9 in NNW 2.2 mph 4.5 mph 99% 0 in 0 W/m2
00:13 49.6 °F 49.5 °F 29.9 in NW 2.2 mph 4.5 mph 99% 0 in 0 W/m2
00:18 49.6 °F 49.5 °F 29.9 in NW 2.2 mph 4.5 mph 99% 0 in 0 W/m2
00:23 49.8 °F 49.6 °F 29.9 in NW 2.2 mph 4.5 mph 99% 0 in 0 W/m2
00:28 49.8 °F 49.6 °F 29.9 in NW 0.7 mph 4.5 mph 99% 0 in 0 W/m2
00:33 49.8 °F 49.6 °F 29.9 in NNW 1.6 mph 3.1 mph 99% 0 in 0 W/m2
00:38 49.8 °F 49.6 °F 29.9 in NNW 1.6 mph 3.1 mph 99% 0 in 0 W/m2
00:43 49.8 °F 49.6 °F 29.9 in NNW 1.6 mph 3.1 mph 99% 0 in 0 W/m2
00:48 49.8 °F 49.6 °F 29.9 in NNW 0.7 mph 3.1 mph 99% 0 in 0 W/m2
00:53 49.8 °F 49.6 °F 29.9 in NNW 2.2 mph 3.1 mph 99% 0 in 0 W/m2
00:58 49.8 °F 49.6 °F 29.9 in Calm   3.8 mph 99% 0 in 0 W/m2
01:03 49.8 °F 49.6 °F 29.9 in NW 1.6 mph 3.8 mph 99% 0 in 0 W/m2
01:08 49.8 °F 49.6 °F 29.9 in NNW 2.2 mph 3.8 mph 99% 0 in 0 W/m2
01:13 49.8 °F 49.6 °F 29.9 in NNW 2.2 mph 3.8 mph 99% 0 in 0 W/m2
01:18 49.8 °F 49.6 °F 29.9 in NNW 1.6 mph 3.8 mph 99% 0 in 0 W/m2
01:23 50 °F 49.6 °F 29.9 in Calm   3.1 mph 99% 0 in 0 W/m2
01:28 50 °F 49.6 °F 29.9 in Calm   2.2 mph 99% 0 in 0 W/m2
01:33 50 °F 49.6 °F 29.9 in North 2.2 mph 3.1 mph 99% 0 in 0 W/m2
01:38 50 °F 49.6 °F 29.9 in NNW 1.6 mph 3.1 mph 99% 0 in 0 W/m2
01:43 50 °F 49.6 °F 29.9 in NNW 0.7 mph 3.1 mph 99% 0 in 0 W/m2
01:48 50 °F 49.6 °F 29.9 in Calm   3.1 mph 99% 0 in 0 W/m2
01:53 50 °F 49.6 °F 29.9 in North 1.6 mph 3.1 mph 99% 0 in 0 W/m2
01:58 50 °F 49.6 °F 29.9 in NNW 3.8 mph 5.4 mph 99% 0 in 0 W/m2
02:03 50 °F 49.6 °F 29.9 in NNW 2.2 mph 5.4 mph 99% 0.01 in 0 W/m2
02:08 50 °F 49.6 °F 29.9 in NW 2.2 mph 5.4 mph 99% 0.01 in 0 W/m2
02:13 50 °F 49.6 °F 29.9 in NW 4.5 mph 6 mph 99% 0.01 in 0 W/m2
02:15 50 °F 49.6 °F 29.9 in NW 3.8 mph 6 mph 99% 0.01 in 0 W/m2
02:20 50 °F 49.6 °F 29.9 in NW 1.6 mph 6 mph 99% 0.01 in 0 W/m2
02:25 50 °F 49.6 °F 29.9 in WNW 1.6 mph 5.4 mph 99% 0.01 in 0 W/m2
02:30 49.8 °F 49.6 °F 29.9 in NW 3.1 mph 5.4 mph 99% 0.02 in 0 W/m2
02:35 50 °F 49.6 °F 29.9 in NW 1.6 mph 4.5 mph 99% 0.02 in 0 W/m2
02:40 50 °F 49.6 °F 29.9 in NW 3.1 mph 4.5 mph 99% 0.02 in 0 W/m2
02:45 50 °F 49.6 °F 29.9 in NW 1.6 mph 4.5 mph 99% 0.02 in 0 W/m2
02:50 50.5 °F 50.4 °F 29.9 in WNW 2.2 mph 9.2 mph 99% 0.02 in 0 W/m2
02:55 50.7 °F 50.5 °F 29.9 in West 5.4 mph 9.2 mph 99% 0.02 in 0 W/m2
03:00 50.9 °F 50.5 °F 29.9 in WNW 3.8 mph 9.2 mph 99% 0.01 in 0 W/m2
03:16 50.9 °F 50.5 °F 29.9 in West 3.8 mph 8.3 mph 99% 0.01 in 0 W/m2
03:21 50.9 °F 50.5 °F 29.9 in WSW 1.6 mph 8.3 mph 99% 0.01 in 0 W/m2
03:26 50.9 °F 50.5 °F 29.9 in WSW 3.8 mph 8.3 mph 99% 0 in 0 W/m2
03:31 50.9 °F 50.5 °F 29.9 in West 8.3 mph 11.4 mph 99% 0 in 0 W/m2
03:36 50.9 °F 50.5 °F 29.9 in WSW 5.4 mph 12.1 mph 99% 0 in 0 W/m2
03:41 50.9 °F 50.5 °F 29.9 in WSW 6.9 mph 12.1 mph 99% 0 in 0 W/m2
03:46 50.9 °F 50.5 °F 29.9 in WSW 4.5 mph 12.1 mph 99% 0 in 0 W/m2
03:51 50.9 °F 50.5 °F 29.9 in West 9.8 mph 12.1 mph 99% 0 in 0 W/m2
03:56 50.9 °F 50.5 °F 29.9 in West 4.5 mph 11.4 mph 99% 0 in 0 W/m2
04:01 50.9 °F 50.5 °F 29.9 in West 6 mph 11.4 mph 99% 0 in 0 W/m2
04:06 50.9 °F 50.5 °F 29.9 in WSW 5.4 mph 9.8 mph 99% 0.01 in 0 W/m2
04:11 50.9 °F 50.5 °F 29.9 in WSW 3.1 mph 10.7 mph 99% 0.02 in 0 W/m2
04:16 50.9 °F 50.5 °F 29.9 in West 3.8 mph 10.7 mph 99% 0.02 in 0 W/m2
04:21 50.9 °F 50.5 °F 29.9 in WSW 3.8 mph 8.3 mph 99% 0.02 in 0 W/m2
04:26 50.9 °F 50.5 °F 29.9 in WSW 3.8 mph 8.3 mph 99% 0.02 in 0 W/m2
04:31 50.9 °F 50.5 °F 29.9 in West 3.1 mph 8.3 mph 99% 0.02 in 0 W/m2
04:36 50.9 °F 50.5 °F 29.9 in West 3.8 mph 8.3 mph 99% 0.02 in 0 W/m2
04:41 50.9 °F 50.5 °F 29.9 in West 3.8 mph 10.7 mph 99% 0.02 in 0 W/m2
04:46 50.9 °F 50.5 °F 29.9 in WNW 3.1 mph 10.7 mph 99% 0.02 in 0 W/m2
04:51 50.7 °F 50.5 °F 29.9 in WNW 2.2 mph 5.4 mph 99% 0.02 in 0 W/m2
04:56 50.7 °F 50.5 °F 29.9 in West 3.8 mph 6 mph 99% 0.02 in 0 W/m2
05:01 50.7 °F 50.5 °F 29.9 in West 5.4 mph 9.2 mph 99% 0.02 in 0 W/m2
05:06 50.7 °F 50.5 °F 29.9 in West 4.5 mph 10.7 mph 99% 0.01 in 0 W/m2
05:11 50.7 °F 50.5 °F 29.9 in West 2.2 mph 13.6 mph 99% 0 in 0 W/m2
05:16 50.7 °F 50.5 °F 29.9 in WSW 2.2 mph 13.6 mph 99% 0 in 0 W/m2
05:21 50.7 °F 50.5 °F 29.9 in West 4.5 mph 6.9 mph 99% 0 in 0 W/m2
05:26 50.7 °F 50.5 °F 29.9 in West 2.2 mph 6.9 mph 99% 0 in 0 W/m2
05:31 50.5 °F 50.4 °F 29.9 in West 5.4 mph 6.9 mph 99% 0 in 0 W/m2
05:36 50.5 °F 50.4 °F 29.9 in West 2.2 mph 9.2 mph 99% 0 in 0 W/m2
05:41 50.5 °F 50.4 °F 29.9 in West 3.8 mph 9.2 mph 99% 0 in 0 W/m2
05:46 50.5 °F 50.4 °F 29.9 in West 4.5 mph 7.6 mph 99% 0 in 0 W/m2
05:51 50.5 °F 50.4 °F 29.9 in WNW 3.8 mph 9.8 mph 99% 0 in 0 W/m2
05:56 50.5 °F 50 °F 29.9 in West 3.1 mph 9.8 mph 98% 0 in 0 W/m2
06:01 50.5 °F 50 °F 29.9 in West 5.4 mph 9.2 mph 98% 0 in 0 W/m2
06:06 50.5 °F 50 °F 29.9 in West 6.9 mph 10.7 mph 98% 0 in 0 W/m2
06:11 50.5 °F 49.6 °F 29.9 in West 6 mph 10.7 mph 97% 0 in 0 W/m2
06:16 50.5 °F 49.6 °F 29.9 in WSW 5.4 mph 10.7 mph 97% 0 in 0 W/m2
06:21 50.5 °F 49.5 °F 29.9 in West 2.2 mph 9.8 mph 96% 0 in 0 W/m2
06:26 50.5 °F 49.5 °F 29.9 in West 1.6 mph 7.6 mph 96% 0 in 0 W/m2
06:31 50.4 °F 49.3 °F 29.9 in WNW 2.2 mph 6 mph 96% 0 in 0 W/m2
06:36 50.4 °F 49.3 °F 29.9 in NW 2.2 mph 6 mph 96% 0 in 0 W/m2
06:41 50.2 °F 49.1 °F 29.9 in NW 3.1 mph 4.5 mph 96% 0 in 0 W/m2
06:46 50 °F 48.9 °F 29.9 in NW 2.2 mph 4.5 mph 96% 0 in 0 W/m2
06:51 50 °F 49.3 °F 29.9 in NW 3.1 mph 5.4 mph 97% 0 in 0 W/m2
06:56 49.8 °F 49.3 °F 29.9 in NW 3.1 mph 5.4 mph 98% 0 in 0 W/m2
07:01 49.8 °F 49.6 °F 29.9 in WNW 0.7 mph 5.4 mph 99% 0 in 0 W/m2
07:06 49.8 °F 49.6 °F 29.9 in NW 3.8 mph 5.4 mph 99% 0 in 0 W/m2
07:11 49.6 °F 49.5 °F 29.9 in NW 2.2 mph 5.4 mph 99% 0 in 0 W/m2
07:16 49.6 °F 49.5 °F 29.9 in NW 2.2 mph 5.4 mph 99% 0 in 0 W/m2
07:21 49.6 °F 49.5 °F 29.9 in NW 1.6 mph 6.9 mph 99% 0 in 0 W/m2
07:26 49.6 °F 49.5 °F 29.9 in WNW 1.6 mph 6.9 mph 99% 0.01 in 0 W/m2
07:31 49.6 °F 49.5 °F 29.9 in WNW 1.6 mph 4.5 mph 99% 0.01 in 0 W/m2
07:36 49.6 °F 49.5 °F 29.9 in WNW 3.8 mph 4.5 mph 99% 0.01 in 0 W/m2
07:41 49.6 °F 49.5 °F 29.9 in West 2.2 mph 5.4 mph 99% 0.01 in 0 W/m2
07:46 49.6 °F 49.1 °F 29.9 in WNW 3.1 mph 5.4 mph 98% 0.01 in 0 W/m2
07:51 49.6 °F 49.1 °F 29.9 in WNW 2.2 mph 5.4 mph 98% 0.01 in 0 W/m2
07:56 49.6 °F 49.1 °F 29.9 in West 2.2 mph 5.4 mph 98% 0.01 in 0 W/m2
08:01 49.6 °F 49.1 °F 29.9 in WNW 1.6 mph 5.4 mph 98% 0.01 in 1 W/m2
08:06 49.6 °F 49.1 °F 29.9 in WNW 2.2 mph 5.4 mph 98% 0.02 in 1 W/m2
08:12 49.6 °F 49.1 °F 30 in West 1.6 mph 5.4 mph 98% 0.02 in 4 W/m2
08:17 49.6 °F 48.7 °F 30 in West 0.7 mph 5.4 mph 97% 0.02 in 6 W/m2
08:22 49.8 °F 48.9 °F 30 in WNW 2.2 mph 4.5 mph 97% 0.01 in 7 W/m2
08:27 49.8 °F 48.9 °F 30 in WNW 1.6 mph 4.5 mph 97% 0.01 in 10 W/m2
08:32 49.8 °F 48.9 °F 30 in WNW 2.2 mph 4.5 mph 97% 0.01 in 12 W/m2
08:37 49.8 °F 48.9 °F 30 in NW 2.2 mph 4.5 mph 97% 0.01 in 18 W/m2
08:42 49.8 °F 48.9 °F 30 in NW 2.2 mph 3.8 mph 97% 0.01 in 21 W/m2
08:47 49.8 °F 48.9 °F 30 in NW 2.2 mph 6 mph 97% 0.01 in 22 W/m2
08:52 49.8 °F 48.9 °F 30 in NW 2.2 mph 6 mph 97% 0.01 in 25 W/m2
08:57 49.8 °F 48.9 °F 30 in NW 1.6 mph 5.4 mph 97% 0.01 in 26 W/m2
09:02 49.8 °F 49.3 °F 30 in NW 1.6 mph 3.8 mph 98% 0.01 in 25 W/m2
09:07 49.8 °F 49.3 °F 30 in NW 1.6 mph 3.8 mph 98% 0 in 25 W/m2
09:12 49.8 °F 49.3 °F 30 in NW 0.7 mph 3.8 mph 98% 0 in 22 W/m2
09:17 50 °F 49.3 °F 30 in Calm   3.8 mph 97% 0 in 20 W/m2
09:22 50 °F 49.3 °F 30 in NW 2.2 mph 4.5 mph 97% 0 in 27 W/m2
09:27 50 °F 49.3 °F 30 in WNW 2.2 mph 5.4 mph 97% 0 in 33 W/m2
09:32 50 °F 49.3 °F 30 in WNW 2.2 mph 5.4 mph 97% 0 in 30 W/m2
09:37 50.2 °F 49.1 °F 30 in NW 0.7 mph 3.8 mph 96% 0 in 30 W/m2
09:42 50.2 °F 49.1 °F 30 in NNW 1.6 mph 3.8 mph 96% 0 in 33 W/m2
09:47 50.2 °F 49.1 °F 30 in North 1.6 mph 3.1 mph 96% 0 in 32 W/m2
09:52 50.2 °F 49.1 °F 30 in NNW 2.2 mph 3.8 mph 96% 0 in 37 W/m2
09:57 50 °F 48.9 °F 30 in NNW 1.6 mph 4.5 mph 96% 0 in 40 W/m2
10:02 49.8 °F 48.9 °F 30 in NW 1.6 mph 4.5 mph 97% 0 in 38 W/m2
10:07 49.8 °F 48.9 °F 30 in NNW 0.7 mph 3.8 mph 97% 0 in 44 W/m2
10:12 49.8 °F 48.9 °F 30 in North 2.2 mph 6 mph 97% 0 in 46 W/m2
10:17 49.6 °F 49.1 °F 30 in North 2.2 mph 6 mph 98% 0 in 56 W/m2
10:22 49.8 °F 49.3 °F 30 in North 1.6 mph 3.8 mph 98% 0 in 56 W/m2
10:27 50 °F 49.3 °F 30 in North 1.6 mph 3.8 mph 97% 0 in 69 W/m2
10:32 50.2 °F 49.6 °F 30 in North 0.7 mph 3.8 mph 98% 0 in 79 W/m2
10:37 50.5 °F 50 °F 30 in Calm   3.8 mph 98% 0 in 79 W/m2
10:42 50.7 °F 50.5 °F 30 in NNE 0.7 mph 1.6 mph 99% 0 in 90 W/m2
10:47 50.7 °F 50.5 °F 30 in NNE 1.6 mph 3.1 mph 99% 0 in 96 W/m2
10:52 50.9 °F 50.4 °F 30 in NNE 0.7 mph 3.1 mph 98% 0 in 87 W/m2
10:57 51.1 °F 50.5 °F 30 in NNE 1.6 mph 3.1 mph 98% 0 in 80 W/m2
11:02 51.3 °F 50.7 °F 30 in North 1.6 mph 3.1 mph 98% 0 in 74 W/m2
11:07 51.1 °F 50.4 °F 30 in Calm   3.1 mph 97% 0 in 71 W/m2
11:13 51.3 °F 50.4 °F 30 in Calm   2.2 mph 97% 0.01 in 60 W/m2
11:18 51.3 °F 50.4 °F 30 in Calm   2.2 mph 97% 0.01 in 64 W/m2
11:23 51.3 °F 50.2 °F 30 in NNW 0.7 mph 3.1 mph 96% 0.01 in 84 W/m2
11:28 51.6 °F 50.5 °F 30 in NNW 1.6 mph 3.1 mph 96% 0.01 in 83 W/m2
11:33 51.6 °F 50.5 °F 30 in NNW 0.7 mph 3.1 mph 96% 0.01 in 96 W/m2
11:38 51.8 °F 50.4 °F 30 in Calm   3.1 mph 95% 0.01 in 87 W/m2
11:43 52.2 °F 50.7 °F 30 in West 3.1 mph 5.4 mph 95% 0.01 in 100 W/m2
11:48 52.2 °F 50.2 °F 30 in WSW 1.6 mph 5.4 mph 93% 0.01 in 93 W/m2
11:53 52 °F 48.7 °F 30 in WSW 3.8 mph 12.1 mph 89% 0.02 in 99 W/m2
11:58 52 °F 48.2 °F 30 in West 4.5 mph 12.1 mph 87% 0.02 in 106 W/m2
12:03 52.2 °F 48.4 °F 30 in WNW 2.2 mph 9.8 mph 87% 0.02 in 106 W/m2
12:08 52.3 °F 48.4 °F 30 in West 3.1 mph 11.4 mph 86% 0.02 in 111 W/m2
12:13 52.5 °F 48.6 °F 30 in West 4.5 mph 11.4 mph 86% 0.01 in 110 W/m2
12:18 52.5 °F 48.6 °F 30 in WSW 2.2 mph 7.6 mph 86% 0.01 in 113 W/m2
12:23 52.9 °F 48.7 °F 30 in WSW 4.5 mph 9.2 mph 86% 0.01 in 119 W/m2
12:28 52.9 °F 48.6 °F 30 in West 5.4 mph 9.8 mph 85% 0.01 in 127 W/m2
12:33 53.1 °F 48.4 °F 30 in West 3.1 mph 9.8 mph 84% 0.01 in 130 W/m2
12:38 53.4 °F 48.7 °F 30 in WSW 6 mph 9.8 mph 84% 0.01 in 135 W/m2
12:43 53.4 °F 48.4 °F 30 in WSW 3.8 mph 10.7 mph 83% 0.01 in 137 W/m2
12:48 53.6 °F 48.2 °F 30 in WSW 3.1 mph 10.7 mph 82% 0 in 147 W/m2
12:53 54 °F 48.6 °F 30 in SW 5.4 mph 10.7 mph 82% 0 in 160 W/m2
12:58 54.1 °F 48.7 °F 30 in SW 3.8 mph 10.7 mph 82% 0 in 162 W/m2
13:03 54.3 °F 48.9 °F 30 in WSW 3.1 mph 9.8 mph 82% 0 in 154 W/m2
13:08 54.9 °F 49.8 °F 30 in WSW 5.4 mph 9.8 mph 83% 0 in 151 W/m2
13:25 54.3 °F 48.9 °F 30 in WSW 7.6 mph 13.6 mph 82% 0 in 140 W/m2
13:30 54.3 °F 48.9 °F 30 in SW 8.3 mph 13 mph 82% 0 in 133 W/m2
13:35 54.3 °F 48.9 °F 30 in SW 5.4 mph 13 mph 82% 0 in 138 W/m2
13:40 54.3 °F 48.9 °F 30 in SW 9.2 mph 14.5 mph 82% 0 in 137 W/m2
13:46 54.5 °F 48.7 °F 30 in WSW 9.8 mph 14.5 mph 81% 0 in 134 W/m2
14:02 54.7 °F 49.3 °F 30 in SW 6 mph 14.5 mph 82% 0 in 124 W/m2
14:07 54.7 °F 49.6 °F 30 in SW 6 mph 14.5 mph 83% 0 in 121 W/m2
14:12 54.3 °F 48.9 °F 30 in SW 3.8 mph 14.5 mph 82% 0 in 117 W/m2
14:17 54.1 °F 48.7 °F 30 in WSW 8.3 mph 15.2 mph 82% 0 in 116 W/m2
14:22 54.1 °F 48.7 °F 30 in WSW 10.7 mph 15.2 mph 82% 0 in 105 W/m2
14:27 54.1 °F 48.7 °F 30 in SW 6.9 mph 15.2 mph 82% 0 in 101 W/m2
14:32 54.1 °F 48.4 °F 30 in SW 6.9 mph 15.2 mph 81% 0 in 99 W/m2
14:37 54.1 °F 48.4 °F 30 in SW 6.9 mph 13 mph 81% 0 in 96 W/m2
14:42 54.3 °F 48.9 °F 30 in SW 6.9 mph 13 mph 82% 0 in 96 W/m2
14:47 54.1 °F 48.7 °F 30 in SW 8.3 mph 13 mph 82% 0 in 83 W/m2
14:52 54 °F 48.4 °F 30 in WSW 7.6 mph 13.6 mph 81% 0 in 71 W/m2
14:57 53.8 °F 48 °F 30 in WSW 9.2 mph 13.6 mph 81% 0 in 69 W/m2
15:02 53.8 °F 48 °F 30 in SW 8.3 mph 13.6 mph 81% 0 in 66 W/m2
15:20 53.8 °F 48 °F 30 in WSW 6 mph 13.6 mph 81% 0 in 46 W/m2
15:25 53.8 °F 48 °F 30 in WSW 11.4 mph 14.5 mph 81% 0 in 45 W/m2
15:30 53.6 °F 47.8 °F 30 in WSW 6.9 mph 14.5 mph 81% 0 in 49 W/m2
15:35 53.6 °F 47.8 °F 30 in WSW 9.8 mph 14.5 mph 81% 0 in 53 W/m2
15:40 53.8 °F 48 °F 30 in SW 9.2 mph 14.5 mph 81% 0 in 51 W/m2
15:45 53.8 °F 48 °F 30 in SW 7.6 mph 14.5 mph 81% 0 in 48 W/m2
15:50 53.8 °F 48.4 °F 30 in WSW 3.8 mph 13 mph 82% 0 in 37 W/m2
15:55 53.8 °F 48.4 °F 30 in WSW 6.9 mph 11.4 mph 82% 0 in 36 W/m2
16:00 53.8 °F 48.4 °F 30 in WSW 5.4 mph 13.6 mph 82% 0 in 24 W/m2
16:05 53.6 °F 48.6 °F 30 in WSW 9.2 mph 13.6 mph 83% 0 in 16 W/m2
16:10 53.6 °F 48.6 °F 30 in SW 7.6 mph 13.6 mph 83% 0 in 9 W/m2
16:15 53.4 °F 48.9 °F 30 in SW 9.8 mph 13.6 mph 85% 0 in 6 W/m2
16:20 53.2 °F 48.9 °F 30 in SW 8.3 mph 14.5 mph 85% 0 in 2 W/m2
16:25 53.2 °F 48.9 °F 30 in SW 4.5 mph 14.5 mph 85% 0 in 3 W/m2
16:30 52.9 °F 48.7 °F 30 in SW 8.3 mph 14.5 mph 86% 0 in 2 W/m2
16:35 52.9 °F 48.2 °F 30 in SW 5.4 mph 14.5 mph 84% 0 in 1 W/m2
16:40 52.9 °F 48.6 °F 30 in SW 8.3 mph 13 mph 85% 0 in 0 W/m2
16:45 52.9 °F 48.6 °F 30 in WSW 9.2 mph 14.5 mph 85% 0 in 0 W/m2
16:50 52.9 °F 48.7 °F 30 in WSW 7.6 mph 14.5 mph 86% 0 in 0 W/m2
16:55 52.7 °F 48.6 °F 30 in WSW 5.4 mph 12.1 mph 86% 0 in 0 W/m2
17:00 52.7 °F 48.6 °F 30 in SW 7.6 mph 13.6 mph 86% 0 in 0 W/m2
17:05 52.7 °F 48.4 °F 30 in SW 9.8 mph 14.5 mph 85% 0 in 0 W/m2
17:10 52.7 °F 48.6 °F 30 in WSW 9.2 mph 14.5 mph 86% 0 in 0 W/m2
17:15 52.5 °F 48.7 °F 30 in West 8.3 mph 14.5 mph 87% 0 in 0 W/m2
17:20 52.5 °F 48.7 °F 30 in WSW 6 mph 14.5 mph 87% 0 in 0 W/m2
17:25 52.5 °F 48.7 °F 30 in WSW 8.3 mph 15.2 mph 87% 0 in 0 W/m2
17:30 52.3 °F 48.4 °F 30 in WSW 6.9 mph 15.2 mph 86% 0 in 0 W/m2
17:35 52.2 °F 48 °F 30 in WSW 7.6 mph 11.4 mph 86% 0 in 0 W/m2
17:40 52.2 °F 47.8 °F 30 in WSW 6.9 mph 12.1 mph 85% 0 in 0 W/m2
17:45 52.3 °F 47.7 °F 30 in WSW 10.7 mph 17.4 mph 84% 0 in 0 W/m2
17:50 52.2 °F 48 °F 30 in WSW 6.9 mph 17.4 mph 86% 0 in 0 W/m2
17:55 51.8 °F 48 °F 30 in WSW 6.9 mph 17.4 mph 87% 0 in 0 W/m2
18:00 51.6 °F 48.6 °F 30 in WSW 6 mph 19 mph 89% 0 in 0 W/m2
18:05 51.3 °F 48.4 °F 30 in WSW 9.2 mph 19 mph 90% 0 in 0 W/m2
18:10 50.9 °F 48.4 °F 30 in WSW 9.8 mph 22.1 mph 91% 0 in 0 W/m2
18:15 50.5 °F 48.6 °F 30 in WSW 6.9 mph 22.1 mph 93% 0 in 0 W/m2
18:20 50.4 °F 48.7 °F 30 in West 8.3 mph 17.4 mph 94% 0 in 0 W/m2
18:25 50.4 °F 48.7 °F 30 in WSW 5.4 mph 12.1 mph 94% 0 in 0 W/m2
18:30 50.4 °F 48.4 °F 30 in West 7.6 mph 13 mph 93% 0 in 0 W/m2
18:35 50.4 °F 48.4 °F 30 in WNW 6.9 mph 15.2 mph 93% 0 in 0 W/m2
18:40 50.2 °F 48.6 °F 30 in West 6 mph 15.2 mph 94% 0 in 0 W/m2
18:45 50 °F 48.4 °F 30 in West 7.6 mph 12.1 mph 94% 0 in 0 W/m2
18:50 49.8 °F 48.7 °F 30 in West 4.5 mph 12.1 mph 96% 0 in 0 W/m2
18:55 49.6 °F 48.6 °F 30 in West 3.8 mph 12.1 mph 96% 0 in 0 W/m2
19:00 49.5 °F 48.6 °F 30 in West 3.8 mph 9.2 mph 97% 0 in 0 W/m2
19:19 48.9 °F 48.4 °F 30 in WNW 4.5 mph 10.7 mph 98% 0.01 in 0 W/m2
19:24 48.9 °F 48.4 °F 30 in WNW 3.8 mph 10.7 mph 98% 0.01 in 0 W/m2
19:29 48.7 °F 48.6 °F 30 in West 3.8 mph 9.2 mph 99% 0.01 in 0 W/m2
19:35 48.7 °F 48.6 °F 30 in WNW 3.1 mph 6.9 mph 99% 0.01 in 0 W/m2
19:40 48.6 °F 48.4 °F 30 in NW 1.6 mph 5.4 mph 99% 0.02 in 0 W/m2
19:45 48.6 °F 48.4 °F 30 in WNW 4.5 mph 6 mph 99% 0.02 in 0 W/m2
19:50 48.6 °F 48.4 °F 30 in WNW 3.8 mph 6 mph 99% 0.02 in 0 W/m2
19:55 48.6 °F 48.4 °F 30 in WNW 3.8 mph 7.6 mph 99% 0.02 in 0 W/m2
20:00 48.6 °F 48.4 °F 30 in NW 2.2 mph 7.6 mph 99% 0.05 in 0 W/m2
20:05 48.6 °F 48.4 °F 30 in West 0.7 mph 5.4 mph 99% 0.04 in 0 W/m2
20:10 48.7 °F 48.6 °F 30 in SW 2.2 mph 6 mph 99% 0.05 in 0 W/m2
20:15 48.7 °F 48.6 °F 30 in WSW 4.5 mph 10.7 mph 99% 0.06 in 0 W/m2
20:20 48.7 °F 48.6 °F 30 in West 3.1 mph 10.7 mph 99% 0.06 in 0 W/m2
20:25 48.7 °F 48.6 °F 30 in WSW 4.5 mph 8.3 mph 99% 0.07 in 0 W/m2
20:30 48.9 °F 48.7 °F 30 in SW 4.5 mph 7.6 mph 99% 0.08 in 0 W/m2
20:35 49.1 °F 48.7 °F 30 in WSW 3.1 mph 9.2 mph 99% 0.09 in 0 W/m2
20:40 49.5 °F 49.3 °F 30 in WSW 2.2 mph 9.2 mph 99% 0.09 in 0 W/m2
20:45 49.5 °F 49.3 °F 30 in West 2.2 mph 7.6 mph 99% 0.09 in 0 W/m2
20:50 49.3 °F 48.9 °F 30 in WNW 5.4 mph 7.6 mph 99% 0.11 in 0 W/m2
20:55 49.1 °F 48.7 °F 30 in WNW 3.8 mph 7.6 mph 99% 0.09 in 0 W/m2
21:00 49.1 °F 48.7 °F 30 in West 3.1 mph 7.6 mph 99% 0.09 in 0 W/m2
21:05 48.9 °F 48.7 °F 30 in West 4.5 mph 8.3 mph 99% 0.11 in 0 W/m2
21:10 48.9 °F 48.7 °F 30 in WNW 3.8 mph 8.3 mph 99% 0.09 in 0 W/m2
21:28 48.2 °F 47.8 °F 30 in NNW 0.7 mph 6.9 mph 99% 0.12 in 0 W/m2
21:33 48.2 °F 47.8 °F 30 in North 1.6 mph 4.5 mph 99% 0.11 in 0 W/m2
21:38 48.2 °F 47.8 °F 30 in NNE 0.7 mph 4.5 mph 99% 0.11 in 0 W/m2
21:43 48.2 °F 47.8 °F 30 in Calm   4.5 mph 99% 0.09 in 0 W/m2
21:48 48.2 °F 47.8 °F 30 in NE 0.7 mph 3.1 mph 99% 0.09 in 0 W/m2
21:53 48.2 °F 47.8 °F 30 in North 3.1 mph 4.5 mph 99% 0.08 in 0 W/m2
21:58 48.4 °F 48 °F 30 in NNE 0.7 mph 5.4 mph 99% 0.07 in 0 W/m2
22:03 48.4 °F 48 °F 30 in ENE 0.7 mph 5.4 mph 99% 0.06 in 0 W/m2
22:08 48.4 °F 48 °F 30 in Calm   3.8 mph 99% 0.06 in 0 W/m2
22:13 48.4 °F 48 °F 30 in Calm   3.8 mph 99% 0.06 in 0 W/m2
22:18 48.4 °F 48 °F 30 in NE 1.6 mph 2.2 mph 99% 0.05 in 0 W/m2
22:23 48.4 °F 48 °F 30 in North 1.6 mph 2.2 mph 99% 0.02 in 0 W/m2
22:28 48.4 °F 48 °F 30 in NW 0.7 mph 2.2 mph 99% 0.02 in 0 W/m2
22:33 48.6 °F 48.4 °F 30 in NW 0.7 mph 3.1 mph 99% 0.01 in 0 W/m2
22:38 48.6 °F 48.4 °F 30 in NNW 0.7 mph 3.1 mph 99% 0.01 in 0 W/m2
22:43 48.9 °F 48.7 °F 30 in NE 1.6 mph 3.1 mph 99% 0.01 in 0 W/m2
22:48 49.3 °F 48.9 °F 30 in NE 0.7 mph 3.1 mph 99% 0.01 in 0 W/m2
22:53 49.5 °F 49.3 °F 30 in NNE 0.7 mph 3.1 mph 99% 0.01 in 0 W/m2
22:58 49.3 °F 48.9 °F 30 in NNE 2.2 mph 3.8 mph 99% 0.01 in 0 W/m2
23:03 49.5 °F 49.3 °F 30 in North 1.6 mph 3.8 mph 99% 0.01 in 0 W/m2
23:08 49.3 °F 48.9 °F 30 in North 1.6 mph 3.1 mph 99% 0 in 0 W/m2
23:13 49.1 °F 48.7 °F 30 in North 0.7 mph 3.1 mph 99% 0 in 0 W/m2
23:18 49.1 °F 48.7 °F 30 in North 0.7 mph 2.2 mph 99% 0 in 0 W/m2
23:23 49.1 °F 48.7 °F 30 in North 4.5 mph 6 mph 99% 0 in 0 W/m2
23:28 49.1 °F 48.7 °F 30 in NW 4.5 mph 6.9 mph 99% 0 in 0 W/m2
23:33 49.5 °F 49.3 °F 30 in West 3.1 mph 6.9 mph 99% 0 in 0 W/m2
23:38 49.6 °F 49.5 °F 30 in West 3.1 mph 7.6 mph 99% 0 in 0 W/m2
23:43 49.6 °F 49.5 °F 30 in West 3.1 mph 7.6 mph 99% 0 in 0 W/m2
23:48 49.8 °F 49.6 °F 30 in West 5.4 mph 9.2 mph 99% 0 in 0 W/m2
23:53 49.8 °F 49.6 °F 30 in WSW 6.9 mph 10.7 mph 99% 0 in 0 W/m2
23:58 50 °F 49.6 °F 30 in West 8.3 mph 10.7 mph 99% 0 in 0 W/m2
Northern Hawkes Bay. New Zealand Historic Data
Compliments of Weather Underground - 2.25 mb